aviador You're here:

KMAI Decoded Metar

MARIANNA in FL, USA
Report Time2018-01-19 18:53:00
UTC Time2018-01-19 19:10:08
Flight Rules vfr VFR
WindCalm
Visibility9999 m
Phenomena:N/A
Clouds:N/A
Expected CloudBase > 10,400 ft AGL from Temp-Dew spread
CeilingNone
Temp13°C (ISA -2)
Dew Point-13°C (15% RH)
AAT9.7°C
QNH1026 hPa
Density Alt-509 ft
Elevation105 ft
Report Wrong Elevation
Raw Report
METAR KMAI 191853Z AUTO 00000KT 10SM CLR 13/M13 A3030 RMK AO2 SLP259
T01281128=

Extra information for KMAI:More info

Metar Taf Metar & Taf Last 4 Metars F.Rules Stats Wind Profile Meteogram Temp Stats Airport Information Weather charts Add Link Nearby VenuesMetar ALERT Operation Metar Decoded Social comments

AIRNAV info for KMAI